createdAt,value
2018-11-21T00:00:29.716Z,940.96
2018-11-21T00:01:29.599Z,940.96
2018-11-21T00:02:29.493Z,940.97
2018-11-21T00:03:29.392Z,941.07
2018-11-21T00:04:29.291Z,940.98
2018-11-21T00:05:29.203Z,941.04
2018-11-21T00:06:29.083Z,941.10
2018-11-21T00:07:28.982Z,941.07
2018-11-21T00:08:28.881Z,941.06
2018-11-21T00:09:28.781Z,941.12
2018-11-21T00:10:28.679Z,941.12
2018-11-21T00:11:28.588Z,941.04
2018-11-21T00:12:28.472Z,941.02
2018-11-21T00:13:28.369Z,941.01
2018-11-21T00:14:28.264Z,941.01
2018-11-21T00:15:28.164Z,941.01
2018-11-21T00:16:28.080Z,941.01
2018-11-21T00:17:27.959Z,941.02
2018-11-21T00:18:27.857Z,941.04
2018-11-21T00:19:27.753Z,941.04
2018-11-21T00:20:27.655Z,941.09
2018-11-21T00:21:27.571Z,941.09
2018-11-21T00:22:27.446Z,941.04
2018-11-21T00:23:27.347Z,941.03
2018-11-21T00:24:27.241Z,940.96
2018-11-21T00:25:27.140Z,941.00
2018-11-21T00:26:27.054Z,940.99
2018-11-21T00:27:26.935Z,941.02
2018-11-21T00:28:26.835Z,940.99
2018-11-21T00:29:26.732Z,941.05
2018-11-21T00:30:26.628Z,941.08
2018-11-21T00:31:26.540Z,941.09
2018-11-21T00:32:26.423Z,941.07
2018-11-21T00:33:26.320Z,941.07
2018-11-21T00:34:26.216Z,941.11
2018-11-21T00:35:26.116Z,941.11
2018-11-21T00:36:26.027Z,941.16
2018-11-21T00:37:25.910Z,941.14
2018-11-21T00:38:25.807Z,941.10
2018-11-21T00:39:25.714Z,941.10
2018-11-21T00:40:25.603Z,941.06
2018-11-21T00:41:25.522Z,941.03
2018-11-21T00:42:25.400Z,941.01
2018-11-21T00:43:25.301Z,941.02
2018-11-21T00:44:25.296Z,940.98
2018-11-21T00:45:25.094Z,941.01
2018-11-21T00:46:25.004Z,941.03
2018-11-21T00:47:24.886Z,941.02
2018-11-21T00:48:24.785Z,941.01
2018-11-21T00:49:24.683Z,941.02
2018-11-21T00:50:24.581Z,941.00
2018-11-21T00:51:24.603Z,940.95
2018-11-21T00:52:24.419Z,940.95
2018-11-21T00:53:24.272Z,940.99
2018-11-21T00:54:24.173Z,940.98
2018-11-21T00:55:24.067Z,940.96
2018-11-21T00:56:23.983Z,940.95
2018-11-21T00:57:23.867Z,940.98
2018-11-21T00:58:23.875Z,940.95
2018-11-21T00:59:23.661Z,940.95
2018-11-21T01:00:23.558Z,940.97
2018-11-21T01:01:23.473Z,940.95
2018-11-21T01:02:23.354Z,940.98
2018-11-21T01:03:23.249Z,940.92
2018-11-21T01:04:23.147Z,941.05
2018-11-21T01:05:23.153Z,941.06
2018-11-21T01:06:22.957Z,940.99
2018-11-21T01:07:22.859Z,941.06
2018-11-21T01:08:22.741Z,941.06
2018-11-21T01:09:22.636Z,941.04
2018-11-21T01:10:22.536Z,941.08
2018-11-21T01:11:22.448Z,941.07
2018-11-21T01:12:22.436Z,941.00
2018-11-21T01:13:22.229Z,940.98
2018-11-21T01:14:22.122Z,940.97
2018-11-21T01:15:22.022Z,940.98
2018-11-21T01:16:21.949Z,941.02
2018-11-21T01:17:21.816Z,941.03
2018-11-21T01:18:21.717Z,941.00
2018-11-21T01:19:21.718Z,941.04
2018-11-21T01:20:21.509Z,941.05
2018-11-21T01:21:21.425Z,941.05
2018-11-21T01:22:21.306Z,941.08
2018-11-21T01:23:21.203Z,941.09
2018-11-21T01:24:21.098Z,941.06
2018-11-21T01:25:20.999Z,941.08
2018-11-21T01:26:21.021Z,941.08
2018-11-21T01:27:20.794Z,941.13
2018-11-21T01:28:20.691Z,941.16
2018-11-21T01:29:20.593Z,941.16
2018-11-21T01:30:20.485Z,941.18
2018-11-21T01:31:20.404Z,941.21
2018-11-21T01:32:20.285Z,941.24
2018-11-21T01:33:20.290Z,941.24
2018-11-21T01:34:20.075Z,941.23
2018-11-21T01:35:19.975Z,941.24
2018-11-21T01:36:19.886Z,941.23
2018-11-21T01:37:19.772Z,941.24
2018-11-21T01:38:19.667Z,941.21
2018-11-21T01:39:19.566Z,941.24
2018-11-21T01:40:19.572Z,941.19
2018-11-21T01:41:19.373Z,941.22
2018-11-21T01:42:19.253Z,941.13
2018-11-21T01:43:19.151Z,941.15
2018-11-21T01:44:19.052Z,941.17
2018-11-21T01:45:18.947Z,941.14
2018-11-21T01:46:18.860Z,941.15
2018-11-21T01:47:18.845Z,941.15
2018-11-21T01:48:18.641Z,941.18
2018-11-21T01:49:18.544Z,941.18
2018-11-21T01:50:18.434Z,941.17
2018-11-21T01:51:18.348Z,941.13
2018-11-21T01:52:18.232Z,941.10
2018-11-21T01:53:18.128Z,941.24
2018-11-21T01:54:18.136Z,941.14
2018-11-21T01:55:17.922Z,941.14
2018-11-21T01:56:17.823Z,941.13
2018-11-21T01:57:17.734Z,941.14
2018-11-21T01:58:17.617Z,941.19
2018-11-21T01:59:17.513Z,941.23
2018-11-21T02:00:17.410Z,941.20
2018-11-21T02:01:17.310Z,941.22
2018-11-21T02:02:17.225Z,941.20
2018-11-21T02:03:17.103Z,941.24
2018-11-21T02:04:17.005Z,941.28
2018-11-21T02:05:16.897Z,941.27
2018-11-21T02:06:16.799Z,941.26
2018-11-21T02:07:16.707Z,941.24
2018-11-21T02:08:16.588Z,941.30
2018-11-21T02:09:16.492Z,941.36
2018-11-21T02:10:16.386Z,941.24
2018-11-21T02:11:16.285Z,941.27
2018-11-21T02:12:16.212Z,941.23
2018-11-21T02:13:16.079Z,941.22
2018-11-21T02:14:15.973Z,941.23
2018-11-21T02:15:15.888Z,941.20
2018-11-21T02:16:15.772Z,941.18
2018-11-21T02:17:15.683Z,941.18
2018-11-21T02:18:15.562Z,941.16
2018-11-21T02:19:15.460Z,941.12
2018-11-21T02:20:15.362Z,941.15
2018-11-21T02:21:15.255Z,941.09
2018-11-21T02:22:15.170Z,941.11
2018-11-21T02:23:15.052Z,941.09
2018-11-21T02:24:14.955Z,941.14
2018-11-21T02:25:14.857Z,941.06
2018-11-21T02:26:14.740Z,941.04
2018-11-21T02:27:14.658Z,941.01
2018-11-21T02:28:14.541Z,941.05
2018-11-21T02:29:14.439Z,941.05
2018-11-21T02:30:14.337Z,941.01
2018-11-21T02:31:14.235Z,941.05
2018-11-21T02:32:14.146Z,941.00
2018-11-21T02:33:14.031Z,941.03
2018-11-21T02:34:13.927Z,941.04
2018-11-21T02:35:13.824Z,940.99
2018-11-21T02:36:13.722Z,941.02
2018-11-21T02:37:13.636Z,941.05
2018-11-21T02:38:13.517Z,940.98
2018-11-21T02:39:13.415Z,941.00
2018-11-21T02:40:13.311Z,940.96
2018-11-21T02:41:13.210Z,941.00
2018-11-21T02:42:13.122Z,941.00
2018-11-21T02:43:13.004Z,940.99
2018-11-21T02:44:12.901Z,940.96
2018-11-21T02:45:12.809Z,940.97
2018-11-21T02:46:12.700Z,940.93
2018-11-21T02:47:12.613Z,940.95
2018-11-21T02:48:12.494Z,940.96
2018-11-21T02:49:12.400Z,940.97
2018-11-21T02:50:12.289Z,940.92
2018-11-21T02:51:12.193Z,940.95
2018-11-21T02:52:12.098Z,940.98
2018-11-21T02:53:11.980Z,940.93
2018-11-21T02:54:11.877Z,940.98
2018-11-21T02:55:11.773Z,941.02
2018-11-21T02:56:11.673Z,941.04
2018-11-21T02:57:11.584Z,940.98
2018-11-21T02:58:11.465Z,941.02
2018-11-21T02:59:11.363Z,941.03
2018-11-21T03:00:11.264Z,940.97
2018-11-21T03:01:11.158Z,941.05
2018-11-21T03:02:11.072Z,941.06
2018-11-21T03:03:10.953Z,941.09
2018-11-21T03:04:10.853Z,941.13
2018-11-21T03:05:10.753Z,941.12
2018-11-21T03:06:10.645Z,941.08
2018-11-21T03:07:10.574Z,941.05
2018-11-21T03:08:10.443Z,941.08
2018-11-21T03:09:10.341Z,941.03
2018-11-21T03:10:10.239Z,941.10
2018-11-21T03:11:10.134Z,941.11
2018-11-21T03:12:10.049Z,941.12
2018-11-21T03:13:09.933Z,941.12
2018-11-21T03:14:09.827Z,941.13
2018-11-21T03:15:09.724Z,941.25
2018-11-21T03:16:09.622Z,941.09
2018-11-21T03:17:09.627Z,941.08
2018-11-21T03:18:09.422Z,941.09
2018-11-21T03:19:09.316Z,941.03
2018-11-21T03:20:09.220Z,941.06
2018-11-21T03:21:09.111Z,941.02
2018-11-21T03:22:09.024Z,941.02
2018-11-21T03:23:08.905Z,941.10
2018-11-21T03:24:08.809Z,941.01
2018-11-21T03:25:08.700Z,941.14
2018-11-21T03:26:08.610Z,941.11
2018-11-21T03:27:08.515Z,941.08
2018-11-21T03:28:08.391Z,941.06
2018-11-21T03:29:08.292Z,941.10
2018-11-21T03:30:08.188Z,941.07
2018-11-21T03:31:08.084Z,941.05
2018-11-21T03:32:08.001Z,941.16
2018-11-21T03:33:07.884Z,941.08
2018-11-21T03:34:07.783Z,941.13
2018-11-21T03:35:07.686Z,941.15
2018-11-21T03:36:07.581Z,941.13
2018-11-21T03:37:07.502Z,941.16
2018-11-21T03:38:07.366Z,941.12
2018-11-21T03:39:07.266Z,941.17
2018-11-21T03:40:07.162Z,941.13
2018-11-21T03:41:07.061Z,941.18
2018-11-21T03:42:06.958Z,941.19
2018-11-21T03:43:06.870Z,941.19
2018-11-21T03:44:06.752Z,941.20
2018-11-21T03:45:06.664Z,941.16
2018-11-21T03:46:06.541Z,941.16
2018-11-21T03:47:06.445Z,941.16
2018-11-21T03:48:06.352Z,941.19
2018-11-21T03:49:06.241Z,941.25
2018-11-21T03:50:06.142Z,941.20
2018-11-21T03:51:06.030Z,941.23
2018-11-21T03:52:05.935Z,941.23
2018-11-21T03:53:05.950Z,941.18
2018-11-21T03:54:05.723Z,941.17
2018-11-21T03:55:05.623Z,941.15
2018-11-21T03:56:05.529Z,941.14
2018-11-21T03:57:05.418Z,941.15
2018-11-21T03:58:05.329Z,941.10
2018-11-21T03:59:05.212Z,941.17
2018-11-21T04:00:05.229Z,941.17
2018-11-21T04:01:05.017Z,941.20
2018-11-21T04:02:04.905Z,941.26
2018-11-21T04:03:04.818Z,941.25
2018-11-21T04:04:04.702Z,941.27
2018-11-21T04:05:04.598Z,941.28
2018-11-21T04:06:04.497Z,941.29
2018-11-21T04:07:04.505Z,941.37
2018-11-21T04:08:04.306Z,941.34
2018-11-21T04:09:04.189Z,941.38
2018-11-21T04:10:04.095Z,941.39
2018-11-21T04:11:03.984Z,941.38
2018-11-21T04:12:03.882Z,941.34
2018-11-21T04:13:03.819Z,941.36
2018-11-21T04:14:03.783Z,941.40
2018-11-21T04:15:03.573Z,941.43
2018-11-21T04:16:03.476Z,941.45
2018-11-21T04:17:03.367Z,941.42
2018-11-21T04:18:03.282Z,941.44
2018-11-21T04:19:03.165Z,941.48
2018-11-21T04:20:03.060Z,941.49
2018-11-21T04:21:03.068Z,941.50
2018-11-21T04:22:02.860Z,941.45
2018-11-21T04:23:02.772Z,941.46
2018-11-21T04:24:02.650Z,941.53
2018-11-21T04:25:02.549Z,941.49
2018-11-21T04:26:02.448Z,941.51
2018-11-21T04:27:02.342Z,941.47
2018-11-21T04:28:02.361Z,941.49
2018-11-21T04:29:02.141Z,941.48
2018-11-21T04:30:02.042Z,941.48
2018-11-21T04:31:01.948Z,941.52
2018-11-21T04:32:01.831Z,941.52
2018-11-21T04:33:01.749Z,941.52
2018-11-21T04:34:01.626Z,941.49
2018-11-21T04:35:01.631Z,941.52
2018-11-21T04:36:01.421Z,941.46
2018-11-21T04:37:01.320Z,941.45
2018-11-21T04:38:01.247Z,941.43
2018-11-21T04:39:01.117Z,941.49
2018-11-21T04:40:01.033Z,941.46
2018-11-21T04:41:00.933Z,941.48
2018-11-21T04:42:00.914Z,941.49
2018-11-21T04:43:00.720Z,941.52
2018-11-21T04:44:00.606Z,941.50
2018-11-21T04:45:00.506Z,941.49
2018-11-21T04:46:00.398Z,941.55
2018-11-21T04:47:00.300Z,941.51
2018-11-21T04:48:00.313Z,941.53
2018-11-21T04:49:00.093Z,941.52
2018-11-21T04:49:59.997Z,941.50
2018-11-21T04:50:59.893Z,941.60
2018-11-21T04:51:59.790Z,941.59
2018-11-21T04:52:59.702Z,941.60
2018-11-21T04:53:59.583Z,941.65
2018-11-21T04:54:59.478Z,941.71
2018-11-21T04:55:59.382Z,941.70
2018-11-21T04:56:59.277Z,941.71
2018-11-21T04:57:59.185Z,941.78
2018-11-21T04:58:59.067Z,941.74
2018-11-21T04:59:58.968Z,941.79
2018-11-21T05:00:58.870Z,941.81
2018-11-21T05:01:58.768Z,941.85
2018-11-21T05:02:58.673Z,941.89
2018-11-21T05:03:58.558Z,941.94
2018-11-21T05:04:58.455Z,941.96
2018-11-21T05:05:58.354Z,941.97
2018-11-21T05:06:58.249Z,942.00
2018-11-21T05:07:58.164Z,941.94
2018-11-21T05:08:58.045Z,942.01
2018-11-21T05:09:57.945Z,941.95
2018-11-21T05:10:57.844Z,941.94
2018-11-21T05:11:57.751Z,941.96
2018-11-21T05:12:57.653Z,942.00
2018-11-21T05:13:57.544Z,942.00
2018-11-21T05:14:57.432Z,942.02
2018-11-21T05:15:57.330Z,942.02
2018-11-21T05:16:58.076Z,942.03
2018-11-21T05:17:57.146Z,942.02
2018-11-21T05:18:57.024Z,942.07
2018-11-21T05:19:56.922Z,942.07
2018-11-21T05:20:56.822Z,942.08
2018-11-21T05:21:56.718Z,942.06
2018-11-21T05:22:56.632Z,942.03
2018-11-21T05:23:56.517Z,942.00
2018-11-21T05:24:56.420Z,942.06
2018-11-21T05:25:56.310Z,942.03
2018-11-21T05:26:56.210Z,942.03
2018-11-21T05:27:56.109Z,942.09
2018-11-21T05:28:56.019Z,942.07
2018-11-21T05:29:55.900Z,942.09
2018-11-21T05:30:55.804Z,942.14
2018-11-21T05:31:55.698Z,942.11
2018-11-21T05:32:55.598Z,942.10
2018-11-21T05:33:55.512Z,942.20
2018-11-21T05:34:55.395Z,942.19
2018-11-21T05:35:55.289Z,942.20
2018-11-21T05:36:55.186Z,942.23
2018-11-21T05:37:55.087Z,942.23
2018-11-21T05:38:54.998Z,942.22
2018-11-21T05:39:54.881Z,942.20
2018-11-21T05:40:54.783Z,942.21
2018-11-21T05:41:54.677Z,942.26
2018-11-21T05:42:54.583Z,942.23
2018-11-21T05:43:57.230Z,942.27
2018-11-21T05:44:54.370Z,942.25
2018-11-21T05:45:54.268Z,942.30
2018-11-21T05:46:54.183Z,942.29
2018-11-21T05:47:54.064Z,942.26
2018-11-21T05:48:53.981Z,942.30
2018-11-21T05:49:53.858Z,942.29
2018-11-21T05:50:53.758Z,942.27
2018-11-21T05:51:53.657Z,942.36
2018-11-21T05:52:53.552Z,942.32
2018-11-21T05:53:53.489Z,942.31
2018-11-21T05:54:53.347Z,942.35
2018-11-21T05:55:53.247Z,942.28
2018-11-21T05:56:53.146Z,942.27
2018-11-21T05:57:53.040Z,942.30
2018-11-21T05:58:52.954Z,942.33
2018-11-21T05:59:52.839Z,942.26
2018-11-21T06:00:52.734Z,942.33
2018-11-21T06:01:52.633Z,942.23
2018-11-21T06:02:52.531Z,942.24
2018-11-21T06:03:52.441Z,942.32
2018-11-21T06:04:52.326Z,942.22
2018-11-21T06:05:52.223Z,942.24
2018-11-21T06:06:52.119Z,942.30
2018-11-21T06:07:52.019Z,942.28
2018-11-21T06:08:51.932Z,942.21
2018-11-21T06:09:51.813Z,942.42
2018-11-21T06:10:51.709Z,942.27
2018-11-21T06:11:51.606Z,942.26
2018-11-21T06:12:51.504Z,942.31
2018-11-21T06:13:51.417Z,942.27
2018-11-21T06:14:51.301Z,942.28
2018-11-21T06:15:51.194Z,942.29
2018-11-21T06:16:51.097Z,942.30
2018-11-21T06:17:51.006Z,942.34
2018-11-21T06:18:51.017Z,942.37
2018-11-21T06:19:50.791Z,942.37
2018-11-21T06:20:50.684Z,942.38
2018-11-21T06:21:50.584Z,942.33
2018-11-21T06:22:50.479Z,942.32
2018-11-21T06:23:50.411Z,942.29
2018-11-21T06:24:50.280Z,942.30
2018-11-21T06:25:50.283Z,942.29
2018-11-21T06:26:50.069Z,942.33
2018-11-21T06:27:49.976Z,942.33
2018-11-21T06:28:49.884Z,942.37
2018-11-21T06:29:49.761Z,942.40
2018-11-21T06:30:49.662Z,942.45
2018-11-21T06:31:49.560Z,942.52
2018-11-21T06:32:49.580Z,942.49
2018-11-21T06:33:49.369Z,942.50
2018-11-21T06:34:49.250Z,942.47
2018-11-21T06:35:49.148Z,942.53
2018-11-21T06:36:49.050Z,942.50
2018-11-21T06:37:48.944Z,942.48
2018-11-21T06:38:48.858Z,942.50
2018-11-21T06:39:48.845Z,942.48
2018-11-21T06:40:48.640Z,942.52
2018-11-21T06:41:48.534Z,942.55
2018-11-21T06:42:48.433Z,942.56
2018-11-21T06:43:48.345Z,942.60
2018-11-21T06:44:48.232Z,942.60
2018-11-21T06:45:48.124Z,942.60
2018-11-21T06:46:48.121Z,942.58
2018-11-21T06:47:47.922Z,942.58
2018-11-21T06:48:47.835Z,942.61
2018-11-21T06:49:47.714Z,942.61
2018-11-21T06:50:47.614Z,942.60
2018-11-21T06:51:47.509Z,942.58
2018-11-21T06:52:47.411Z,942.60
2018-11-21T06:53:47.430Z,942.61
2018-11-21T06:54:47.209Z,942.66
2018-11-21T06:55:47.103Z,942.70
2018-11-21T06:56:47.000Z,942.69
2018-11-21T06:57:46.896Z,942.73
2018-11-21T06:58:46.812Z,942.74
2018-11-21T06:59:46.691Z,942.69
2018-11-21T07:00:46.705Z,942.73
2018-11-21T07:01:46.485Z,942.75
2018-11-21T07:02:46.389Z,942.81
2018-11-21T07:03:46.299Z,942.71
2018-11-21T07:04:46.183Z,942.72
2018-11-21T07:05:46.075Z,942.75
2018-11-21T07:06:45.971Z,942.77
2018-11-21T07:07:45.980Z,942.79
2018-11-21T07:08:45.784Z,942.77
2018-11-21T07:09:45.669Z,942.86
2018-11-21T07:10:45.565Z,942.85
2018-11-21T07:11:46.897Z,942.92
2018-11-21T07:12:45.361Z,942.89
2018-11-21T07:13:45.260Z,942.92
2018-11-21T07:14:45.275Z,942.92
2018-11-21T07:15:45.052Z,943.01
2018-11-21T07:16:44.952Z,942.93
2018-11-21T07:17:44.848Z,942.92
2018-11-21T07:18:44.763Z,942.92
2018-11-21T07:19:44.662Z,942.93
2018-11-21T07:20:44.541Z,942.93
2018-11-21T07:21:44.546Z,942.93
2018-11-21T07:22:44.335Z,942.94
2018-11-21T07:23:44.237Z,942.93
2018-11-21T07:24:44.147Z,943.00
2018-11-21T07:25:44.038Z,943.03
2018-11-21T07:26:43.926Z,943.04
2018-11-21T07:27:43.824Z,943.07
2018-11-21T07:28:43.727Z,943.06
2018-11-21T07:29:43.636Z,943.08
2018-11-21T07:30:43.517Z,943.14
2018-11-21T07:31:43.417Z,943.13
2018-11-21T07:32:43.322Z,943.10
2018-11-21T07:33:46.506Z,943.14
2018-11-21T07:34:43.125Z,943.11
2018-11-21T07:35:43.111Z,943.12
2018-11-21T07:36:42.907Z,943.12
2018-11-21T07:37:42.803Z,943.10
2018-11-21T07:38:42.704Z,943.17
2018-11-21T07:39:42.617Z,943.14
2018-11-21T07:40:42.549Z,943.14
2018-11-21T07:41:42.395Z,943.16
2018-11-21T07:42:42.296Z,943.21
2018-11-21T07:43:42.199Z,943.22
2018-11-21T07:44:42.116Z,943.23
2018-11-21T07:45:41.988Z,943.24
2018-11-21T07:46:41.886Z,943.24
2018-11-21T07:47:41.784Z,943.24
2018-11-21T07:48:41.688Z,943.22
2018-11-21T07:49:41.582Z,943.22
2018-11-21T07:50:41.495Z,943.20
2018-11-21T07:51:41.378Z,943.24
2018-11-21T07:52:41.281Z,943.28
2018-11-21T07:53:41.172Z,943.25
2018-11-21T07:54:41.074Z,943.24
2018-11-21T07:55:41.011Z,943.25
2018-11-21T07:56:40.868Z,943.25
2018-11-21T07:57:40.767Z,943.25
2018-11-21T07:58:40.663Z,943.26
2018-11-21T07:59:40.564Z,943.27
2018-11-21T08:00:40.478Z,943.26
2018-11-21T08:01:40.369Z,943.31
2018-11-21T08:02:40.257Z,943.33
2018-11-21T08:03:40.156Z,943.31
2018-11-21T08:04:40.056Z,943.34
2018-11-21T08:05:44.333Z,943.37
2018-11-21T08:06:39.850Z,943.30
2018-11-21T08:07:39.747Z,943.29
2018-11-21T08:08:39.655Z,943.31
2018-11-21T08:09:39.546Z,943.27
2018-11-21T08:10:39.460Z,943.30
2018-11-21T08:11:39.342Z,943.30
2018-11-21T08:12:39.245Z,943.30
2018-11-21T08:13:39.139Z,943.32
2018-11-21T08:14:39.041Z,943.36
2018-11-21T08:15:38.952Z,943.34
2018-11-21T08:16:38.836Z,943.36
2018-11-21T08:17:38.734Z,943.29
2018-11-21T08:18:38.634Z,943.28
2018-11-21T08:19:38.533Z,943.31
2018-11-21T08:20:38.448Z,943.34
2018-11-21T08:21:38.329Z,943.31
2018-11-21T08:22:38.225Z,943.33
2018-11-21T08:23:38.128Z,943.31
2018-11-21T08:24:38.024Z,943.31
2018-11-21T08:25:37.942Z,943.30
2018-11-21T08:26:37.821Z,943.31
2018-11-21T08:27:37.720Z,943.38
2018-11-21T08:28:37.620Z,943.35
2018-11-21T08:29:37.519Z,943.34
2018-11-21T08:30:37.435Z,943.33
2018-11-21T08:31:37.317Z,943.26
2018-11-21T08:32:37.218Z,943.32
2018-11-21T08:33:37.111Z,943.35
2018-11-21T08:34:37.013Z,943.37
2018-11-21T08:35:36.935Z,943.37
2018-11-21T08:36:36.813Z,943.41
2018-11-21T08:37:36.706Z,943.40
2018-11-21T08:38:36.605Z,943.43
2018-11-21T08:39:36.506Z,943.49
2018-11-21T08:40:36.419Z,943.49
2018-11-21T08:41:36.306Z,943.52
2018-11-21T08:42:36.202Z,943.53
2018-11-21T08:43:36.102Z,943.51
2018-11-21T08:44:36.108Z,943.55
2018-11-21T08:45:35.912Z,943.56
2018-11-21T08:46:35.964Z,943.53
2018-11-21T08:47:35.695Z,943.52
2018-11-21T08:48:35.596Z,943.53
2018-11-21T08:49:35.492Z,943.52
2018-11-21T08:50:35.395Z,943.54
2018-11-21T08:51:35.306Z,943.56
2018-11-21T08:52:35.306Z,943.56
2018-11-21T08:53:35.089Z,943.54
2018-11-21T08:54:34.986Z,943.58
2018-11-21T08:55:34.900Z,943.55
2018-11-21T08:56:34.785Z,943.58
2018-11-21T08:57:34.683Z,943.55
2018-11-21T08:58:34.580Z,943.55
2018-11-21T08:59:34.585Z,943.57
2018-11-21T09:00:34.379Z,943.61
2018-11-21T09:01:35.223Z,943.63
2018-11-21T09:02:34.177Z,943.63
2018-11-21T09:03:34.074Z,943.66
2018-11-21T09:04:33.978Z,943.68
2018-11-21T09:05:33.872Z,943.74
2018-11-21T09:06:33.892Z,943.70
2018-11-21T09:07:33.671Z,943.72
2018-11-21T09:08:33.573Z,943.72
2018-11-21T09:09:33.465Z,943.71
2018-11-21T09:10:54.376Z,943.77
2018-11-21T09:11:33.264Z,943.75
2018-11-21T09:12:33.170Z,943.76
2018-11-21T09:13:33.161Z,943.74
2018-11-21T09:14:32.959Z,943.69
2018-11-21T09:15:32.861Z,943.70
2018-11-21T09:16:32.774Z,943.75
2018-11-21T09:17:32.655Z,943.75
2018-11-21T09:18:32.554Z,943.77
2018-11-21T09:19:32.451Z,943.80
2018-11-21T09:20:32.477Z,943.78
2018-11-21T09:21:32.265Z,943.84
2018-11-21T09:22:32.150Z,943.86
2018-11-21T09:23:32.050Z,943.88
2018-11-21T09:24:31.950Z,943.90
2018-11-21T09:25:31.851Z,943.85
2018-11-21T09:26:31.761Z,943.91
2018-11-21T09:27:31.748Z,943.86
2018-11-21T09:28:31.545Z,943.86
2018-11-21T09:29:31.441Z,943.86
2018-11-21T09:30:31.392Z,943.89
2018-11-21T09:31:31.255Z,943.82
2018-11-21T09:32:31.140Z,943.84
2018-11-21T09:33:31.039Z,943.88
2018-11-21T09:34:31.041Z,943.81
2018-11-21T09:35:30.835Z,943.80
2018-11-21T09:36:30.749Z,943.86
2018-11-21T09:37:30.634Z,943.86
2018-11-21T09:38:30.546Z,943.93
2018-11-21T09:39:30.428Z,943.88
2018-11-21T09:40:30.329Z,943.93
2018-11-21T09:41:30.348Z,943.89
2018-11-21T09:42:30.125Z,943.92
2018-11-21T09:43:30.026Z,943.94
2018-11-21T09:44:29.926Z,943.90
2018-11-21T09:45:29.819Z,943.87
2018-11-21T09:46:29.734Z,943.87
2018-11-21T09:47:29.619Z,943.88
2018-11-21T09:48:29.620Z,943.86
2018-11-21T09:49:29.419Z,943.90
2018-11-21T09:50:29.319Z,943.89
2018-11-21T09:51:29.233Z,943.90
2018-11-21T09:52:29.112Z,943.94
2018-11-21T09:53:29.015Z,943.85
2018-11-21T09:54:29.038Z,943.85
2018-11-21T09:55:28.808Z,943.87
2018-11-21T09:56:28.726Z,943.85
2018-11-21T09:57:28.606Z,943.83
2018-11-21T09:58:28.506Z,943.86
2018-11-21T09:59:28.404Z,943.81
2018-11-21T10:00:28.304Z,943.84
2018-11-21T10:01:28.223Z,943.85
2018-11-21T10:02:28.212Z,943.90
2018-11-21T10:03:28.000Z,943.91
2018-11-21T10:04:27.902Z,943.87
2018-11-21T10:05:27.803Z,943.89
2018-11-21T10:06:27.716Z,943.86
2018-11-21T10:07:27.601Z,943.90
2018-11-21T10:08:27.497Z,943.92
2018-11-21T10:09:27.500Z,943.94
2018-11-21T10:10:27.295Z,943.92
2018-11-21T10:11:27.209Z,943.87
2018-11-21T10:12:27.094Z,943.88
2018-11-21T10:13:26.989Z,943.81
2018-11-21T10:14:26.888Z,943.88
2018-11-21T10:15:26.787Z,943.88
2018-11-21T10:16:26.704Z,943.85
2018-11-21T10:17:26.588Z,943.83
2018-11-21T10:18:27.035Z,943.88
2018-11-21T10:19:26.386Z,943.86
2018-11-21T10:20:26.288Z,943.89
2018-11-21T10:21:26.196Z,943.93
2018-11-21T10:22:26.084Z,943.93
2018-11-21T10:23:26.090Z,943.95
2018-11-21T10:24:25.886Z,943.97
2018-11-21T10:25:25.780Z,943.97
2018-11-21T10:26:25.694Z,943.90
2018-11-21T10:27:25.581Z,943.86
2018-11-21T10:28:25.478Z,943.88
2018-11-21T10:29:25.378Z,943.86
2018-11-21T10:30:25.276Z,943.84
2018-11-21T10:31:25.192Z,943.89
2018-11-21T10:32:25.072Z,943.88
2018-11-21T10:33:24.971Z,943.92
2018-11-21T10:34:24.873Z,943.93
2018-11-21T10:35:24.771Z,943.91
2018-11-21T10:36:24.685Z,943.90
2018-11-21T10:37:24.567Z,943.91
2018-11-21T10:38:24.473Z,943.98
2018-11-21T10:39:24.368Z,943.92
2018-11-21T10:40:24.267Z,943.94
2018-11-21T10:41:24.182Z,943.90
2018-11-21T10:42:24.072Z,943.91
2018-11-21T10:43:28.141Z,943.86
2018-11-21T10:44:23.870Z,943.86
2018-11-21T10:45:23.764Z,943.86
2018-11-21T10:46:23.663Z,943.90
2018-11-21T10:47:23.582Z,943.88
2018-11-21T10:48:23.466Z,943.91
2018-11-21T10:49:23.359Z,943.91
2018-11-21T10:50:23.261Z,943.93
2018-11-21T10:51:23.162Z,943.97
2018-11-21T10:52:23.080Z,943.94
2018-11-21T10:53:22.958Z,943.99
2018-11-21T10:54:22.903Z,943.98
2018-11-21T10:55:22.757Z,943.97
2018-11-21T10:56:22.658Z,944.05
2018-11-21T10:57:22.571Z,943.99
2018-11-21T10:58:22.462Z,944.01
2018-11-21T10:59:22.358Z,943.96
2018-11-21T11:00:22.256Z,943.99
2018-11-21T11:01:22.158Z,944.02
2018-11-21T11:02:22.069Z,944.00
2018-11-21T11:03:21.951Z,944.00
2018-11-21T11:04:21.855Z,943.99
2018-11-21T11:05:21.754Z,944.03
2018-11-21T11:06:21.652Z,944.09
2018-11-21T11:07:21.565Z,944.03
2018-11-21T11:08:21.448Z,944.12
2018-11-21T11:09:21.351Z,944.08
2018-11-21T11:10:21.248Z,944.10
2018-11-21T11:11:21.152Z,944.09
2018-11-21T11:12:21.066Z,944.09
2018-11-21T11:13:20.952Z,944.12
2018-11-21T11:14:20.849Z,944.06
2018-11-21T11:15:20.750Z,944.11
2018-11-21T11:16:20.647Z,944.07
2018-11-21T11:17:20.560Z,944.07
2018-11-21T11:18:20.447Z,944.05
2018-11-21T11:19:20.346Z,944.08
2018-11-21T11:20:20.248Z,944.07
2018-11-21T11:21:20.146Z,944.06
2018-11-21T11:22:20.079Z,944.07
2018-11-21T11:23:19.944Z,944.05
2018-11-21T11:24:19.842Z,944.06
2018-11-21T11:25:19.743Z,944.05
2018-11-21T11:26:19.646Z,944.09
2018-11-21T11:27:19.561Z,944.06
2018-11-21T11:28:19.442Z,944.07
2018-11-21T11:29:19.339Z,944.04
2018-11-21T11:30:19.240Z,944.06
2018-11-21T11:31:19.140Z,944.02
2018-11-21T11:32:19.168Z,944.10
2018-11-21T11:33:18.936Z,944.06
2018-11-21T11:34:18.837Z,944.09
2018-11-21T11:35:18.736Z,944.06
2018-11-21T11:36:18.641Z,944.06
2018-11-21T11:37:18.552Z,944.10
2018-11-21T11:38:18.434Z,944.13
2018-11-21T11:39:18.334Z,944.13
2018-11-21T11:40:18.236Z,944.14
2018-11-21T11:41:18.139Z,944.11
2018-11-21T11:42:18.056Z,944.17
2018-11-21T11:43:17.934Z,944.11
2018-11-21T11:44:17.833Z,944.10
2018-11-21T11:45:17.732Z,944.10
2018-11-21T11:46:17.744Z,944.10
2018-11-21T11:47:17.548Z,944.12
2018-11-21T11:48:17.433Z,944.15
2018-11-21T11:49:17.335Z,944.15
2018-11-21T11:50:17.232Z,944.16
2018-11-21T11:51:17.146Z,944.13
2018-11-21T11:52:17.047Z,944.13
2018-11-21T11:53:17.043Z,944.15
2018-11-21T11:54:16.828Z,944.08
2018-11-21T11:55:16.728Z,944.11
2018-11-21T11:56:16.628Z,944.08
2018-11-21T11:57:16.549Z,944.09
2018-11-21T11:58:16.426Z,944.07
2018-11-21T11:59:16.366Z,944.08
2018-11-21T12:00:16.361Z,944.09
2018-11-21T12:01:16.123Z,944.08
2018-11-21T12:02:16.043Z,944.08
2018-11-21T12:03:15.926Z,944.08
2018-11-21T12:04:15.826Z,944.11
2018-11-21T12:05:15.724Z,944.07
2018-11-21T12:06:15.622Z,944.05
2018-11-21T12:07:15.648Z,944.03
2018-11-21T12:08:15.425Z,944.02
2018-11-21T12:09:15.323Z,944.06
2018-11-21T12:10:15.227Z,944.00
2018-11-21T12:11:15.127Z,943.98
2018-11-21T12:12:15.041Z,944.04
2018-11-21T12:13:14.922Z,944.02
2018-11-21T12:14:14.934Z,944.04
2018-11-21T12:15:14.725Z,944.03
2018-11-21T12:16:14.623Z,944.02
2018-11-21T12:17:14.535Z,944.02
2018-11-21T12:18:14.418Z,944.01
2018-11-21T12:19:14.332Z,944.04
2018-11-21T12:20:14.217Z,944.05
2018-11-21T12:21:14.260Z,944.08
2018-11-21T12:22:14.034Z,944.05
2018-11-21T12:23:13.920Z,944.08
2018-11-21T12:24:13.821Z,944.08
2018-11-21T12:25:13.717Z,944.06
2018-11-21T12:26:13.615Z,944.06
2018-11-21T12:27:13.523Z,944.07